PST,Max TemperatureF,Mean TemperatureF,Min TemperatureF,Max Dew PointF,MeanDew PointF,Min DewpointF,Max Humidity, Mean Humidity, Min Humidity, Max Sea Level PressureIn, Mean Sea Level PressureIn, Min Sea Level PressureIn, Max VisibilityMiles, Mean VisibilityMiles, Min VisibilityMiles, Max Wind SpeedMPH, Mean Wind SpeedMPH, Max Gust SpeedMPH,PrecipitationIn, CloudCover, Events, WindDirDegrees
2012-12-1,53,50,46,46,44,41,87,80,67,29.70,29.56,29.29,10,10,7,17,12,29,0.78,7,,155
2012-12-2,51,48,44,45,43,39,93,82,71,29.89,29.56,29.23,10,10,8,20,10,29,0.38,7,,152
2012-12-3,53,50,48,46,44,41,87,79,67,30.02,29.92,29.65,10,10,5,16,12,25,0.19,8,,148
2012-12-4,53,50,46,50,45,39,93,84,71,29.96,29.77,29.56,10,8,3,18,8,29,0.70,8,,161
2012-12-5,48,44,39,43,38,36,93,80,66,30.25,30.18,29.97,10,10,8,9,4,,0.01,5,,149
2012-12-6,46,44,41,43,39,36,93,85,76,30.25,30.19,30.14,10,10,5,14,8,21,0.21,8,,150
2012-12-7,48,44,39,43,40,36,93,85,71,30.23,30.15,30.09,10,10,7,13,7,18,0.10,6,,168
2012-12-8,42,40,37,39,37,34,93,87,81,30.37,30.28,30.22,10,10,5,7,2,,0.04,7,,147
2012-12-9,46,42,39,43,39,36,93,85,81,30.39,30.36,30.32,10,9,3,13,5,18,0.01,8,,160
2012-12-10,48,44,41,45,41,37,93,85,71,30.44,30.36,30.13,10,8,2,8,3,,0.00,7,,145
2012-12-11,46,44,41,41,40,37,87,83,76,30.11,29.78,29.61,10,10,5,16,5,26,0.24,8,,148
2012-12-12,44,42,39,39,38,36,93,84,76,30.03,29.85,29.69,10,10,6,8,3,,0.11,8,,150
2012-12-13,44,42,39,37,37,36,93,83,71,30.06,29.97,29.85,10,9,5,12,3,16,0.06,8,,154
2012-12-14,42,38,35,37,35,34,93,86,76,29.98,29.90,29.82,10,10,5,10,5,,0.24,7,,139
2012-12-15,41,39,37,36,34,32,93,85,76,29.93,29.76,29.61,10,10,4,17,9,28,0.46,8,,144
2012-12-16,46,42,37,43,38,34,87,84,76,29.82,29.52,29.07,10,10,5,26,10,39,0.96,8,,146
2012-12-17,48,42,35,41,35,30,93,80,70,29.97,29.67,29.09,10,10,5,18,10,31,0.55,7,,190
2012-12-18,39,36,33,34,32,30,93,83,75,30.04,30.00,29.95,10,10,2,16,10,23,0.30,8,,145
2012-12-19,46,42,37,39,35,32,87,80,71,30.00,29.77,29.55,10,10,5,25,17,37,0.91,8,,145
2012-12-20,46,42,37,39,36,34,87,80,70,29.83,29.70,29.54,10,10,9,23,14,37,0.60,7,,142
2012-12-21,44,40,37,39,36,34,93,85,76,29.80,29.73,29.62,10,10,9,13,5,18,0.07,7,,139
2012-12-22,46,42,39,37,37,36,93,80,71,29.76,29.62,29.51,10,10,5,22,8,32,0.21,8,,144
2012-12-23,44,42,39,37,36,34,87,81,71,29.90,29.73,29.62,10,10,8,20,9,26,0.35,8,,145
2012-12-24,44,40,37,37,36,34,93,82,70,30.20,30.10,29.90,10,10,5,10,7,,0.10,6,,147
2012-12-25,42,40,37,37,35,34,93,84,70,30.02,29.75,29.66,10,10,8,13,8,22,0.45,8,,141
2012-12-26,42,40,39,39,37,36,93,87,81,30.02,29.85,29.71,10,9,5,12,7,17,0.15,8,,146
2012-12-27,44,42,39,37,37,36,93,85,76,30.19,30.14,30.03,10,9,4,9,6,,0.01,8,,146
2012-12-28,44,40,37,37,35,30,87,80,70,30.17,30.14,30.11,10,10,10,7,4,,0.00,8,,148
2012-12-29,41,37,33,34,30,28,93,77,61,30.24,30.20,30.16,10,10,5,10,4,,0.01,8,,147
2012-12-30,44,36,28,34,30,25,93,81,57,30.33,30.29,30.24,10,9,5,4,0,,0.00,2,,92
2012-12-31,33,30,28,30,28,25,93,84,75,30.45,30.34,30.27,10,8,1,7,2,,0.08,6,,131